Shoshone, California Weather observations

Data are for observation ending at time listed.
 Day   Time    Ave.   Ave.  Ave.  Vector   Max.   Stn.    Total    Solar   Ave.  
  of    of     Air    Rel.  Wind   Wind    Wind   Baro.  Precip.   Rad.    Soil  
Year   Day     Temp.  Hum.  Speed  Dir.    Gust   Pres.                    Temp. 
2016   (PST)    F      %     mph   deg.    mph     mb.     in.     W/m2     F   
------------------------------------------------------------------------------
 120   13:00   78.6    19    4.8   197     16.9    963     0.00     851    99999.0
 120   14:00   80.4    16    4.3   192     16.1    963     0.00     834    99999.0
 120   15:00   80.8    14    5.4   200     15.5    961     0.00     708    99999.0
 120   16:00   81.3    13    6.5   205     15.9    960     0.00     608    99999.0
 120   17:00   81.8    13    5.6   184     13.4    959     0.00     384    99999.0
 120   18:00   80.8    15    3.2   163     10.0    959     0.00     160    99999.0
 120   19:00   78.2    16    0.7   138      7.5    958     0.00      13    99999.0
 120   20:00   75.9    18    5.7   187     19.2    958     0.00       0    99999.0
 120   21:00   75.3    19    8.4   206     19.9    958     0.00       0    99999.0
 120   22:00   73.5    20    9.8   189     19.6    958     0.00       0    99999.0
 120   23:00   71.3    21    4.6   173     17.3    957     0.00       0    99999.0
 121    0:00   70.1    22    4.4   172     19.1    957     0.00       0    99999.0
 121    1:00   63.9    46   22.4   332     44.4    958     0.00       0    99999.0
 121    2:00   58.7    62   23.1   334     40.2    959     0.00       0    99999.0
 121    3:00   56.2    74   14.0   336     28.6    960     0.00       0    99999.0
 121    4:00   55.8    74    4.6   352     14.0    960     0.02       0    99999.0
 121    5:00   56.6    69    4.8   284     11.5    960     0.00       2    99999.0
 121    6:00   56.6    70    6.6   325     13.5    960     0.00      29    99999.0
 121    7:00   57.1    67    9.8   331     23.6    961     0.00      58    99999.0
 121    8:00   56.3    68    9.7   330     18.1    962     0.00      68    99999.0
 121    9:00   57.4    67    9.9   336     17.5    961     0.00     178    99999.0
 121   10:00   61.4    58   12.5   332     23.2    961     0.00     513    99999.0
 121   11:00   65.0    48   12.7   330     24.0    961     0.00     527    99999.0
 121   12:00   67.2    40   10.2   337     19.7    961     0.00     595    99999.0

Return to Shoshone, California graphs page.


Western Regional Climate Center,wrcc@dri.edu